首页
METAR-TAF:

METAR-TAF

机场 :

法阿國際機場

大溪地, 法属波利尼西亚

纬度: 17-33S, 经度: 149-37W, 海拔: 2米

当前天气观测

该预报发布于21分钟前的05:00 UTC
风速2节,风向多变
温度 27°C
湿度 66%
气压 1013 hPa
能见度10公里或以上
少量云层高于2100英尺

METAR: NTAA 190500Z VRB02KT 9999 FEW021 27/20 Q1013 NOSIG

时间: 19:21 (05:21 UTC)

预报

该预报发布于6小时和21分钟前的23:00 UTC
预报有效从19日的 00点(UTC)到 20日的 06点(UTC)
风速16节,风向东北
能见度10公里或以上
少量云层高于2500英尺
散云层高于5000英尺
成为
从 19日的 05点(UTC)到 19日的 07点(UTC)
风速3节,风向多变
成为
从 19日的 18点(UTC)到 19日的 20点(UTC)
风速14节,风向东北

TAF: NTAA 182300Z 1900/2006 04016KT 9999 FEW025 SCT050 BECMG 1905/1907 VRB03KT BECMG 1918/1920 05014KT

超过4000个机场的气象观测和天气预报(METAR&TAF报告)。

可查询的气象台以黄色和红色小点在地图上表示。

将鼠标移到小点上方,可查看气象台名称。

然后点击查看天气观测和预报。

如需切换地图:点击带黑十字的绿色按钮放大地图;点击带横线的绿色按钮缩小地图;或者点击绿色箭头查看邻近地区的地图。


METAR-TAF: